Time;durP1;ratioP1;P1;durP2;ratioP2;P2;SDS_P1;SDS_P2;PMS_P1;PMS_P2;Temp;Humidity;BMP_temperature;BMP_pressure;BME280_temperature;BME280_humidity;BME280_pressure;Samples;Min_cycle;Max_cycle;Signal;HPM_P1;HPM_P2
2022/10/21 00:02:13;;;;;;;3.72;2.90;;;;;;;21.83;54.55;96078.22;5031941;28;20199;-79
2022/10/21 00:04:40;;;;;;;3.72;2.78;;;;;;;21.77;54.41;96058.28;5028289;28;20316;-79
2022/10/21 00:07:07;;;;;;;4.22;3.03;;;;;;;21.85;54.59;96081.47;5031234;28;20219;-79
2022/10/21 00:09:34;;;;;;;3.60;2.53;;;;;;;21.82;54.83;96073.81;5048547;28;20210;-78
2022/10/21 00:12:02;;;;;;;3.70;2.60;;;;;;;21.89;54.18;96074.22;5033472;28;20203;-78
2022/10/21 00:14:30;;;;;;;3.55;2.60;;;;;;;21.86;54.65;96072.88;5025060;28;20218;-80
2022/10/21 00:16:59;;;;;;;4.10;2.38;;;;;;;21.86;54.71;96061.88;5031125;28;20205;-79
2022/10/21 00:19:27;;;;;;;3.95;2.47;;;;;;;21.81;54.88;96047.47;5039473;28;20214;-78
2022/10/21 00:21:54;;;;;;;3.05;2.63;;;;;;;21.87;54.44;96049.78;5032778;28;20207;-80
2022/10/21 00:24:21;;;;;;;4.10;2.90;;;;;;;21.82;54.76;96032.59;5033828;28;20265;-79
2022/10/21 00:26:50;;;;;;;3.45;2.63;;;;;;;21.81;54.73;96031.78;5029943;28;20207;-78
2022/10/21 00:29:17;;;;;;;2.72;2.38;;;;;;;21.79;54.60;96033.22;5026754;28;20222;-80
2022/10/21 00:31:44;;;;;;;4.78;2.78;;;;;;;21.71;55.08;96021.00;5027304;28;20234;-78
2022/10/21 00:34:11;;;;;;;2.60;2.40;;;;;;;21.72;55.16;96025.38;5016815;28;20207;-80
2022/10/21 00:36:39;;;;;;;2.90;2.30;;;;;;;21.77;55.14;96036.28;5026561;28;20199;-79
2022/10/21 00:39:06;;;;;;;4.07;2.38;;;;;;;21.77;55.45;96029.97;5035492;28;20202;-79
2022/10/21 00:41:33;;;;;;;3.33;2.53;;;;;;;21.67;55.77;96024.69;5029672;28;20214;-79
2022/10/21 00:44:03;;;;;;;6.60;2.38;;;;;;;21.71;55.47;96026.50;5030546;28;20257;-80
2022/10/21 00:46:38;;;;;;;5.47;2.50;;;;;;;21.69;55.68;96031.50;5036098;28;20225;-79
2022/10/21 00:49:08;;;;;;;5.32;2.20;;;;;;;21.63;56.39;96030.00;5030747;28;20209;-79
2022/10/21 00:51:36;;;;;;;4.63;2.30;;;;;;;21.63;55.75;96007.19;5041881;28;20206;-79
2022/10/21 00:54:05;;;;;;;5.20;2.35;;;;;;;21.66;55.90;96023.06;5034590;28;20203;-82
2022/10/21 00:56:35;;;;;;;2.55;1.95;;;;;;;21.65;55.68;96010.44;5026932;28;20207;-79
2022/10/21 00:59:03;;;;;;;3.35;2.00;;;;;;;21.79;55.14;96014.78;5031323;28;20205;-80
2022/10/21 01:01:31;;;;;;;3.25;1.80;;;;;;;21.77;54.99;95997.81;5031315;28;20242;-79
2022/10/21 01:04:00;;;;;;;3.70;2.13;;;;;;;21.79;55.42;96014.78;5034115;28;20191;-79
2022/10/21 01:06:28;;;;;;;3.15;1.73;;;;;;;21.67;56.14;96003.53;5033111;28;20230;-80
2022/10/21 01:08:57;;;;;;;3.22;1.73;;;;;;;21.75;54.81;95988.25;5034184;28;20223;-79
2022/10/21 01:11:27;;;;;;;2.03;1.52;;;;;;;21.91;54.58;95970.28;5026946;28;20222;-80
2022/10/21 01:14:19;;;;;;;2.00;1.60;;;;;;;21.90;54.39;95968.66;5045901;28;20294;-78
2022/10/21 01:16:54;;;;;;;3.03;1.50;;;;;;;21.83;54.81;95971.00;5031009;28;20211;-79
2022/10/21 01:20:01;;;;;;;1.70;1.60;;;;;;;21.98;53.77;95967.94;5033438;28;20293;-79
2022/10/21 01:22:51;;;;;;;3.65;1.50;;;;;;;21.98;54.50;95981.69;5016120;28;20214;-80
2022/10/21 01:25:36;;;;;;;2.13;1.60;;;;;;;21.86;55.07;95973.94;5027198;28;20207;-80
2022/10/21 01:28:15;;;;;;;3.60;1.63;;;;;;;21.77;56.51;95961.28;5028115;28;20230;-79
2022/10/21 01:30:50;;;;;;;1.58;1.40;;;;;;;21.73;56.72;95965.75;5025926;28;20209;-79
2022/10/21 01:33:39;;;;;;;1.63;1.50;;;;;;;21.61;57.16;95941.56;5024144;28;20207;-79
2022/10/21 01:36:25;;;;;;;2.08;1.63;;;;;;;21.61;56.65;95955.28;5029918;28;20219;-79
2022/10/21 01:39:02;;;;;;;1.95;1.30;;;;;;;21.59;56.89;95959.50;5025243;28;20250;-79
2022/10/21 01:41:35;;;;;;;1.58;1.42;;;;;;;21.65;55.85;95945.31;5049207;28;20210;-80
2022/10/21 01:44:11;;;;;;;1.55;1.45;;;;;;;21.55;57.87;95940.06;5020815;28;20199;-80
2022/10/21 01:46:44;;;;;;;2.83;1.60;;;;;;;21.52;57.14;95925.00;5024969;28;20190;-80
2022/10/21 01:49:23;;;;;;;3.33;1.65;;;;;;;21.60;56.97;95934.47;5023833;28;20219;-81
2022/10/21 01:51:52;;;;;;;1.98;1.30;;;;;;;21.56;56.92;95933.44;5030171;28;20229;-80
2022/10/21 01:54:26;;;;;;;3.47;1.70;;;;;;;21.61;56.12;95941.56;5042158;28;20203;-78
2022/10/21 01:56:55;;;;;;;1.67;1.50;;;;;;;21.61;56.27;95938.81;5045620;28;20214;-79
2022/10/21 01:59:26;;;;;;;1.52;1.40;;;;;;;21.62;56.25;95937.69;5026392;28;20210;-79
2022/10/21 02:01:57;;;;;;;1.30;1.20;;;;;;;21.55;57.31;95934.56;5016710;28;20217;-79
2022/10/21 02:04:27;;;;;;;1.50;1.30;;;;;;;21.46;57.49;95914.44;5032584;28;20288;-81
2022/10/21 02:06:54;;;;;;;2.42;1.42;;;;;;;21.46;56.99;95898.78;5027953;28;20234;-79
2022/10/21 02:09:21;;;;;;;1.50;1.30;;;;;;;21.52;56.34;95902.25;5044463;28;20235;-80
2022/10/21 02:11:52;;;;;;;2.38;1.40;;;;;;;21.52;56.52;95894.78;5027507;28;20195;-80
2022/10/21 02:14:23;;;;;;;2.38;1.60;;;;;;;21.50;56.77;95897.06;5028194;28;20196;-78
2022/10/21 02:16:56;;;;;;;2.03;1.58;;;;;;;21.47;56.99;95899.59;5027665;28;20234;-79
2022/10/21 02:19:23;;;;;;;4.75;1.90;;;;;;;21.33;56.90;95883.16;5029469;28;20231;-78
2022/10/21 02:21:52;;;;;;;1.50;1.40;;;;;;;21.51;55.82;95889.63;5028334;28;20206;-79
2022/10/21 02:24:27;;;;;;;1.95;1.30;;;;;;;21.53;55.80;95890.09;5034180;28;20266;-79
2022/10/21 02:26:54;;;;;;;2.53;1.30;;;;;;;21.57;54.89;95869.13;5027980;28;20237;-80
2022/10/21 02:29:27;;;;;;;1.65;1.40;;;;;;;21.66;54.33;95867.28;5028191;28;20219;-80
2022/10/21 02:32:08;;;;;;;2.45;1.50;;;;;;;21.69;54.11;95863.88;5027569;28;20267;-78
2022/10/21 02:34:44;;;;;;;1.80;1.52;;;;;;;21.61;55.15;95861.06;5025766;28;20205;-79
2022/10/21 02:37:22;;;;;;;2.30;1.30;;;;;;;21.57;55.52;95844.41;5029569;28;20272;-80
2022/10/21 02:39:56;;;;;;;1.55;1.40;;;;;;;21.58;55.03;95824.06;5026352;28;20217;-80
2022/10/21 02:42:31;;;;;;;2.75;1.50;;;;;;;21.47;56.15;95842.72;5027582;28;20209;-80
2022/10/21 02:45:01;;;;;;;2.65;1.60;;;;;;;21.48;54.73;95827.06;5023375;28;20238;-80
2022/10/21 02:47:29;;;;;;;1.45;1.35;;;;;;;21.55;54.83;95854.91;5031000;28;20416;-80
2022/10/21 02:49:56;;;;;;;1.40;1.20;;;;;;;21.44;55.68;95821.34;5042418;28;20202;-80
2022/10/21 02:52:23;;;;;;;2.67;1.48;;;;;;;21.45;54.82;95813.94;5035501;28;20253;-79
2022/10/21 02:54:50;;;;;;;1.42;1.33;;;;;;;21.49;55.00;95825.94;5030268;28;20211;-80
2022/10/21 02:57:17;;;;;;;1.48;1.30;;;;;;;21.49;54.47;95814.94;5031267;28;20211;-79
2022/10/21 02:59:44;;;;;;;2.58;1.50;;;;;;;21.58;54.53;95806.75;5042066;28;20215;-80
2022/10/21 03:02:11;;;;;;;1.73;1.38;;;;;;;21.51;55.07;95801.72;5026398;28;20203;-79
2022/10/21 03:04:40;;;;;;;1.77;1.42;;;;;;;21.50;54.39;95806.41;5025293;28;20242;-81
2022/10/21 03:07:07;;;;;;;1.95;1.20;;;;;;;21.42;55.44;95815.41;5018947;28;20206;-79
2022/10/21 03:09:34;;;;;;;1.27;1.17;;;;;;;21.42;55.90;95812.66;5026126;28;20218;-79
2022/10/21 03:12:00;;;;;;;1.63;1.42;;;;;;;21.43;55.56;95816.22;5030457;28;20270;-79
2022/10/21 03:14:28;;;;;;;1.20;1.10;;;;;;;21.40;55.47;95816.81;5027667;28;20222;-80
2022/10/21 03:16:54;;;;;;;1.20;1.10;;;;;;;21.40;55.14;95811.31;5038889;28;20560;-79
2022/10/21 03:19:21;;;;;;;1.40;1.20;;;;;;;21.42;55.52;95811.84;5046280;28;20199;-78
2022/10/21 03:21:50;;;;;;;1.30;1.20;;;;;;;21.40;55.55;95794.84;5022681;28;20204;-80
2022/10/21 03:24:17;;;;;;;1.45;1.27;;;;;;;21.43;55.00;95819.75;5028029;28;20310;-80
2022/10/21 03:26:44;;;;;;;3.15;1.30;;;;;;;21.39;55.26;95806.94;5024500;28;20217;-82
2022/10/21 03:29:11;;;;;;;2.10;1.20;;;;;;;21.42;55.50;95804.41;5034237;28;20230;-79
2022/10/21 03:31:38;;;;;;;2.40;1.23;;;;;;;21.43;55.53;95810.72;5029305;28;20202;-80
2022/10/21 03:34:08;;;;;;;1.45;1.10;;;;;;;21.47;55.33;95806.19;5031521;28;20215;-79
2022/10/21 03:36:35;;;;;;;1.40;1.30;;;;;;;21.46;55.26;95807.31;5033879;28;20249;-79
2022/10/21 03:39:04;;;;;;;1.40;1.30;;;;;;;21.43;55.71;95828.00;5030462;28;20202;-79
2022/10/21 03:41:31;;;;;;;2.20;1.30;;;;;;;21.41;55.90;95815.69;5027408;28;20268;-83
2022/10/21 03:43:58;;;;;;;1.65;1.20;;;;;;;21.32;55.76;95807.41;5029231;28;20202;-83
2022/10/21 03:46:25;;;;;;;1.40;1.30;;;;;;;21.46;54.63;95821.06;5027064;28;20203;-83
2022/10/21 03:48:52;;;;;;;2.80;1.20;;;;;;;21.48;54.59;95794.09;5037175;28;20229;-83
2022/10/21 03:51:19;;;;;;;1.45;1.30;;;;;;;21.47;54.83;95796.03;5034071;28;20195;-83
2022/10/21 03:53:46;;;;;;;1.30;1.20;;;;;;;21.46;54.93;95794.41;5027316;28;20202;-83
2022/10/21 03:56:15;;;;;;;2.38;1.10;;;;;;;21.60;54.40;95799.03;5028069;28;20214;-83
2022/10/21 03:58:42;;;;;;;1.52;1.20;;;;;;;21.66;53.22;95793.09;5045380;28;20198;-83
2022/10/21 04:01:12;;;;;;;1.35;1.20;;;;;;;21.66;54.14;95784.84;5029436;28;20219;-83
2022/10/21 04:03:39;;;;;;;1.30;1.20;;;;;;;21.57;55.30;95775.72;5026779;28;20305;-83
2022/10/21 04:06:09;;;;;;;1.63;1.20;;;;;;;21.41;55.48;95764.31;5021429;28;20235;-83
2022/10/21 04:08:36;;;;;;;1.73;1.25;;;;;;;21.51;55.11;95763.25;5028438;28;20235;-83
2022/10/21 04:11:03;;;;;;;2.47;1.30;;;;;;;21.47;55.46;95751.28;5012549;28;20227;-83
2022/10/21 04:13:32;;;;;;;2.17;1.40;;;;;;;21.43;55.59;95758.53;5030118;28;20210;-83
2022/10/21 04:15:59;;;;;;;2.25;1.25;;;;;;;21.35;56.29;95760.06;5026741;28;20226;-83
2022/10/21 04:18:27;;;;;;;1.40;1.30;;;;;;;21.33;56.07;95745.06;5032089;28;20281;-83
2022/10/21 04:20:54;;;;;;;2.33;1.40;;;;;;;21.42;55.04;95751.41;5036241;28;20233;-82
2022/10/21 04:23:21;;;;;;;1.40;1.30;;;;;;;21.56;54.16;95741.16;5025718;28;20211;-83
2022/10/21 04:25:48;;;;;;;1.92;1.20;;;;;;;21.53;55.74;95755.50;5031025;28;20238;-84
2022/10/21 04:28:15;;;;;;;1.35;1.20;;;;;;;21.46;55.49;95738.66;5030389;28;20218;-83
2022/10/21 04:30:43;;;;;;;3.20;1.42;;;;;;;21.46;55.06;95727.66;5024319;28;20205;-84
2022/10/21 04:33:11;;;;;;;1.60;1.30;;;;;;;21.41;55.80;95714.91;5029456;28;20214;-84
2022/10/21 04:35:39;;;;;;;2.65;1.30;;;;;;;21.39;55.73;95716.31;5029195;28;20216;-85
2022/10/21 04:38:07;;;;;;;1.70;1.30;;;;;;;21.34;56.32;95694.50;5031219;28;20195;-83
2022/10/21 04:40:34;;;;;;;1.30;1.20;;;;;;;21.25;56.32;95677.97;5030678;28;20225;-83
2022/10/21 04:43:01;;;;;;;2.88;1.40;;;;;;;21.20;56.42;95669.03;5036525;28;20217;-83
2022/10/21 04:45:28;;;;;;;3.15;1.50;;;;;;;21.22;56.50;95683.28;5031247;28;20203;-83
2022/10/21 04:47:56;;;;;;;2.97;1.13;;;;;;;21.23;56.95;95682.16;5027777;28;20206;-83
2022/10/21 04:50:24;;;;;;;1.45;1.30;;;;;;;21.18;57.41;95704.25;5043188;28;20239;-83
2022/10/21 04:52:52;;;;;;;1.92;1.13;;;;;;;21.17;57.11;95686.13;5039065;28;20197;-83
2022/10/21 04:55:19;;;;;;;1.38;1.13;;;;;;;21.10;56.61;95664.59;5041502;28;20202;-84
2022/10/21 04:57:46;;;;;;;1.23;1.13;;;;;;;21.14;56.41;95649.94;5019978;28;20214;-84
2022/10/21 05:00:13;;;;;;;1.75;1.40;;;;;;;21.23;56.33;95661.00;5022686;28;20298;-84
2022/10/21 05:02:40;;;;;;;1.88;1.20;;;;;;;21.24;56.31;95672.78;5030908;28;20211;-84
2022/10/21 05:05:09;;;;;;;1.25;1.15;;;;;;;21.17;56.14;95651.28;5031275;28;20265;-82
2022/10/21 05:07:36;;;;;;;1.23;1.10;;;;;;;21.36;54.08;95665.56;5024730;28;20203;-83
2022/10/21 05:10:04;;;;;;;1.50;1.20;;;;;;;21.35;55.27;95649.44;5039866;28;20327;-84
2022/10/21 05:12:31;;;;;;;2.38;1.13;;;;;;;21.29;54.86;95651.50;5028350;28;20209;-83
2022/10/21 05:14:59;;;;;;;1.23;1.13;;;;;;;21.31;55.05;95670.41;5029620;28;20268;-84
2022/10/21 05:17:26;;;;;;;1.63;1.40;;;;;;;21.33;54.04;95658.00;5045449;28;20214;-83
2022/10/21 05:19:53;;;;;;;1.02;0.93;;;;;;;21.43;53.50;95665.97;5035624;28;20203;-83
2022/10/21 05:22:22;;;;;;;1.10;1.00;;;;;;;21.45;53.84;95660.13;5030782;28;20210;-84
2022/10/21 05:24:50;;;;;;;2.35;1.15;;;;;;;21.44;52.27;95653.00;5027757;28;20203;-83
2022/10/21 05:27:17;;;;;;;1.30;1.20;;;;;;;21.58;52.84;95670.22;5044893;28;20215;-84
2022/10/21 05:29:44;;;;;;;1.17;1.08;;;;;;;21.55;52.63;95675.53;5031292;28;20215;-83
2022/10/21 05:32:11;;;;;;;1.67;1.00;;;;;;;21.69;51.37;95670.75;5033479;28;20198;-82
2022/10/21 05:34:38;;;;;;;1.73;0.90;;;;;;;21.61;51.66;95674.25;5025532;28;20234;-83
2022/10/21 05:37:05;;;;;;;1.10;1.00;;;;;;;21.65;51.76;95676.06;5042893;28;20207;-84
2022/10/21 05:39:33;;;;;;;2.10;1.23;;;;;;;21.63;52.25;95667.31;5033853;28;20273;-83
2022/10/21 05:42:00;;;;;;;0.90;0.90;;;;;;;21.51;52.82;95669.88;5024320;28;20209;-82
2022/10/21 05:44:28;;;;;;;1.65;1.20;;;;;;;21.45;52.71;95657.38;5033815;28;20231;-83
2022/10/21 05:46:54;;;;;;;0.80;0.80;;;;;;;21.53;51.97;95667.59;5036613;28;20217;-83
2022/10/21 05:49:22;;;;;;;0.98;0.88;;;;;;;21.56;52.14;95675.22;5028787;28;20215;-83
2022/10/21 05:51:49;;;;;;;2.03;0.90;;;;;;;21.61;51.91;95671.50;5031140;28;20215;-83
2022/10/21 05:54:16;;;;;;;1.00;0.90;;;;;;;21.56;52.32;95677.16;5031710;28;20241;-83
2022/10/21 05:56:46;;;;;;;1.00;0.90;;;;;;;21.60;51.64;95673.47;5032388;28;20214;-83
2022/10/21 05:59:15;;;;;;;1.15;1.05;;;;;;;21.61;51.76;95683.31;5043716;28;20214;-85
2022/10/21 06:01:42;;;;;;;1.20;1.10;;;;;;;21.55;52.20;95676.34;5032630;28;20203;-86
2022/10/21 06:04:09;;;;;;;1.13;0.90;;;;;;;21.53;52.05;95684.06;5030327;28;20272;-85
2022/10/21 06:06:36;;;;;;;0.95;0.90;;;;;;;21.55;52.09;95686.50;5026155;28;20191;-85
2022/10/21 06:09:03;;;;;;;0.80;0.80;;;;;;;21.52;52.01;95693.47;5018847;28;20228;-83
2022/10/21 06:11:31;;;;;;;1.00;0.90;;;;;;;21.50;52.58;95701.22;5024766;28;20315;-85
2022/10/21 06:14:00;;;;;;;0.80;0.80;;;;;;;21.52;51.85;95704.47;5031026;28;20290;-85
2022/10/21 06:16:27;;;;;;;0.90;0.90;;;;;;;21.43;52.33;95701.66;5027614;28;20198;-86
2022/10/21 06:18:54;;;;;;;0.70;0.70;;;;;;;21.42;52.57;95705.53;5044267;28;20266;-84
2022/10/21 06:21:21;;;;;;;0.80;0.80;;;;;;;21.42;52.15;95705.53;5025414;28;20217;-84
2022/10/21 06:23:48;;;;;;;0.88;0.80;;;;;;;21.49;51.86;95724.31;5029698;28;20253;-85
2022/10/21 06:26:17;;;;;;;0.73;0.73;;;;;;;21.59;51.57;95734.22;5040005;28;20195;-85
2022/10/21 06:28:44;;;;;;;0.95;0.95;;;;;;;21.61;51.27;95745.69;5027188;28;20203;-84
2022/10/21 06:31:15;;;;;;;2.05;0.90;;;;;;;21.56;51.24;95749.38;5013225;28;20537;-86
2022/10/21 06:33:42;;;;;;;0.75;0.75;;;;;;;21.62;51.72;95770.09;5019101;28;20207;-85
2022/10/21 06:36:09;;;;;;;0.65;0.65;;;;;;;21.65;51.40;95774.16;5027400;28;20301;-86
2022/10/21 06:38:37;;;;;;;0.80;0.80;;;;;;;21.54;51.67;95781.84;5028914;28;20203;-86
2022/10/21 06:41:06;;;;;;;0.98;0.80;;;;;;;21.60;51.46;95788.84;5027764;28;20194;-85
2022/10/21 06:43:34;;;;;;;0.85;0.85;;;;;;;21.65;50.83;95801.63;5029496;28;20215;-86
2022/10/21 06:46:03;;;;;;;1.52;0.90;;;;;;;21.61;51.49;95804.19;5017097;28;20218;-86
2022/10/21 06:48:31;;;;;;;1.70;0.75;;;;;;;21.55;51.70;95804.63;5019714;28;20206;-86
2022/10/21 06:50:59;;;;;;;2.03;1.00;;;;;;;21.59;51.45;95808.41;5024499;28;20284;-85
2022/10/21 06:53:28;;;;;;;1.42;0.90;;;;;;;21.56;50.77;95798.03;5023791;28;20190;-85
2022/10/21 06:56:02;;;;;;;0.90;0.90;;;;;;;21.64;50.73;95803.56;5023560;28;20202;-84
2022/10/21 06:58:30;;;;;;;0.93;0.80;;;;;;;21.62;51.22;95802.25;5023423;28;20218;-82
2022/10/21 07:00:57;;;;;;;1.25;1.10;;;;;;;21.58;51.42;95807.59;5039260;28;20199;-84
2022/10/21 07:03:24;;;;;;;1.00;0.80;;;;;;;21.63;51.93;95832.16;5026706;28;20257;-84
2022/10/21 07:05:59;;;;;;;0.70;0.70;;;;;;;21.60;51.33;95843.00;5036856;28;20241;-84
2022/10/21 07:08:26;;;;;;;0.80;0.80;;;;;;;21.60;51.78;95849.28;5027837;28;20260;-84
2022/10/21 07:10:53;;;;;;;0.80;0.80;;;;;;;21.58;51.85;95862.53;5045342;28;20233;-84
2022/10/21 07:13:21;;;;;;;1.35;0.80;;;;;;;21.56;51.92;95880.44;5043225;28;20207;-86
2022/10/21 07:15:48;;;;;;;4.82;2.90;;;;;;;21.32;64.57;95881.53;5018778;28;20209;-84
2022/10/21 07:18:15;;;;;;;5.97;3.58;;;;;;;20.83;70.64;95887.81;5034880;28;20203;-84
2022/10/21 07:20:42;;;;;;;5.05;3.45;;;;;;;20.10;76.01;95883.16;5027349;28;20207;-84
2022/10/21 07:23:11;;;;;;;7.32;3.30;;;;;;;19.62;78.58;95899.06;5027107;28;20195;-84
2022/10/21 07:25:38;;;;;;;7.30;2.80;;;;;;;19.67;78.70;95889.94;5028011;28;20217;-83
2022/10/21 07:28:05;;;;;;;5.07;2.80;;;;;;;19.72;78.96;95876.19;5045560;28;20213;-85
2022/10/21 07:30:39;;;;;;;8.15;3.10;;;;;;;19.64;80.15;95892.19;5030131;28;20247;-84
2022/10/21 07:33:06;;;;;;;5.20;3.75;;;;;;;19.54;85.13;95895.06;5029120;28;20202;-83
2022/10/21 07:35:33;;;;;;;9.02;3.92;;;;;;;19.38;87.18;95907.34;5029617;28;20206;-84
2022/10/21 07:38:00;;;;;;;8.02;4.03;;;;;;;19.33;89.86;95926.56;5030319;28;20195;-86
2022/10/21 07:40:29;;;;;;;10.77;4.60;;;;;;;19.15;94.03;95932.84;5029154;28;20203;-84
2022/10/21 07:42:57;;;;;;;11.07;4.23;;;;;;;18.94;94.79;95917.81;5022198;28;20212;-83
2022/10/21 07:45:24;;;;;;;8.00;4.43;;;;;;;18.84;97.02;95916.84;5022346;28;20203;-83
2022/10/21 07:47:51;;;;;;;11.37;4.50;;;;;;;18.84;97.53;95935.97;5032535;28;20242;-84
2022/10/21 07:50:18;;;;;;;8.67;4.60;;;;;;;18.73;98.20;95930.91;5034181;28;20220;-83
2022/10/21 07:52:45;;;;;;;11.00;4.87;;;;;;;18.79;99.47;95930.59;5032986;28;20207;-84
2022/10/21 07:55:13;;;;;;;9.90;4.80;;;;;;;18.74;99.50;95927.91;5031279;28;20198;-83
2022/10/21 07:57:42;;;;;;;8.43;4.80;;;;;;;18.71;100.00;95944.91;5029836;28;20234;-83
2022/10/21 08:00:10;;;;;;;9.13;4.93;;;;;;;18.65;100.00;95943.31;5030606;28;20194;-83
2022/10/21 08:02:40;;;;;;;8.90;5.80;;;;;;;18.56;100.00;95958.69;5031470;28;20269;-83
2022/10/21 08:05:08;;;;;;;13.97;6.27;;;;;;;18.40;100.00;95951.75;5028815;28;20230;-84
2022/10/21 08:07:35;;;;;;;10.70;6.07;;;;;;;18.35;100.00;95946.38;5031021;28;20217;-83
2022/10/21 08:10:04;;;;;;;9.43;5.43;;;;;;;18.48;100.00;95957.41;5030411;28;20230;-84
2022/10/21 08:12:31;;;;;;;12.97;6.47;;;;;;;18.48;100.00;95953.88;5030286;28;20202;-83
2022/10/21 08:14:59;;;;;;;10.03;5.63;;;;;;;18.42;100.00;95963.22;5046433;28;20207;-83
2022/10/21 08:17:26;;;;;;;13.03;5.83;;;;;;;18.51;100.00;95969.69;5027975;28;20195;-83
2022/10/21 08:19:55;;;;;;;10.63;6.30;;;;;;;18.45;100.00;95974.41;5030643;28;20214;-83
2022/10/21 08:22:22;;;;;;;11.30;6.10;;;;;;;18.48;100.00;95978.47;5045970;28;20206;-83
2022/10/21 08:24:49;;;;;;;9.37;5.50;;;;;;;18.42;100.00;95972.25;5039521;28;20211;-83
2022/10/21 08:27:16;;;;;;;14.33;6.43;;;;;;;18.50;100.00;95977.09;5047420;28;20214;-83
2022/10/21 08:29:44;;;;;;;11.60;6.53;;;;;;;18.49;100.00;95974.63;5033512;28;20211;-83
2022/10/21 08:32:12;;;;;;;13.27;7.00;;;;;;;18.41;100.00;95978.00;5031288;28;20218;-83
2022/10/21 08:34:39;;;;;;;14.43;7.10;;;;;;;18.39;100.00;95975.56;5023825;28;20255;-83
2022/10/21 08:37:07;;;;;;;11.80;7.00;;;;;;;18.41;100.00;95997.94;5047821;28;20198;-84
2022/10/21 08:39:34;;;;;;;12.20;7.00;;;;;;;18.33;100.00;95997.75;5032345;28;20199;-83
2022/10/21 08:42:12;;;;;;;14.67;7.50;;;;;;;18.23;100.00;96001.41;5030682;28;20203;-84
2022/10/21 08:44:44;;;;;;;12.43;7.03;;;;;;;18.12;100.00;95995.19;5033669;28;20206;-84
2022/10/21 08:47:23;;;;;;;12.77;6.70;;;;;;;18.18;100.00;96011.56;5035565;28;20249;-83
2022/10/21 08:49:56;;;;;;;13.07;7.23;;;;;;;18.18;100.00;96023.31;5042246;28;20217;-83
2022/10/21 08:52:27;;;;;;;10.57;7.32;;;;;;;18.13;100.00;96021.44;5031712;28;20257;-84
2022/10/21 08:54:59;;;;;;;9.67;6.43;;;;;;;18.17;100.00;96031.78;5030851;28;20210;-83
2022/10/21 08:57:26;;;;;;;11.50;7.00;;;;;;;18.13;100.00;96043.28;5032548;28;20310;-83
2022/10/21 08:59:54;;;;;;;15.88;7.07;;;;;;;18.11;100.00;96045.50;5027528;28;20302;-83
2022/10/21 09:02:50;;;;;;;9.87;6.73;;;;;;;18.05;100.00;96045.81;5025385;28;20204;-83
2022/10/21 09:05:53;;;;;;;12.00;7.30;;;;;;;17.95;100.00;96057.63;5044993;28;20239;-83
2022/10/21 09:08:26;;;;;;;10.57;6.57;;;;;;;17.87;100.00;96063.69;5010664;28;20297;-83
2022/10/21 09:11:02;;;;;;;11.53;6.87;;;;;;;17.78;100.00;96052.53;5027726;28;20235;-83
2022/10/21 09:13:59;;;;;;;10.43;6.40;;;;;;;17.84;100.00;96071.66;5029993;28;20252;-83
2022/10/21 09:16:36;;;;;;;7.33;4.83;;;;;;;17.91;100.00;96072.16;5039257;28;20207;-83
2022/10/21 09:19:17;;;;;;;10.23;4.70;;;;;;;17.95;100.00;96074.00;5022320;28;20203;-83
2022/10/21 09:21:58;;;;;;;5.47;4.23;;;;;;;18.03;100.00;96067.16;5031744;28;20198;-84
2022/10/21 09:24:34;;;;;;;8.73;5.40;;;;;;;18.06;100.00;96067.38;5027090;28;20270;-83
2022/10/21 09:27:03;;;;;;;9.47;6.07;;;;;;;18.04;100.00;96066.03;5026786;28;20290;-84
2022/10/21 09:29:32;;;;;;;11.67;6.13;;;;;;;17.97;100.00;96082.75;5027323;28;20260;-84
2022/10/21 09:32:11;;;;;;;12.90;7.07;;;;;;;17.97;100.00;96087.41;5025486;28;20306;-83
2022/10/21 09:34:47;;;;;;;14.80;6.93;;;;;;;17.89;100.00;96075.16;5020447;28;20212;-83
2022/10/21 09:37:22;;;;;;;11.10;5.80;;;;;;;17.90;100.00;96084.16;5024453;28;20202;-83
2022/10/21 09:39:59;;;;;;;17.67;9.97;;;;;;;17.92;100.00;96084.72;5028685;28;20289;-84
2022/10/21 09:42:26;;;;;;;10.80;6.77;;;;;;;18.02;100.00;96085.47;5045094;28;20218;-83
2022/10/21 09:44:53;;;;;;;10.00;6.97;;;;;;;18.03;100.00;96073.41;5041104;28;20234;-83
2022/10/21 09:47:22;;;;;;;10.10;6.10;;;;;;;17.95;100.00;96079.47;5025496;28;20285;-83
2022/10/21 09:49:54;;;;;;;8.67;5.23;;;;;;;17.95;100.00;96093.13;5024196;28;20191;-83
2022/10/21 09:52:24;;;;;;;9.93;5.80;;;;;;;18.02;100.00;96087.38;5041244;28;20298;-83
2022/10/21 09:54:51;;;;;;;8.57;5.07;;;;;;;18.05;100.00;96073.13;5023174;28;20211;-83
2022/10/21 09:57:24;;;;;;;11.50;5.47;;;;;;;18.08;100.00;96076.13;5027997;28;20203;-83
2022/10/21 09:59:56;;;;;;;8.50;4.47;;;;;;;18.14;100.00;96079.63;5022659;28;20226;-83
2022/10/21 10:02:31;;;;;;;9.97;4.80;;;;;;;18.06;100.00;96075.59;5025839;28;21329;-83
2022/10/21 10:05:00;;;;;;;7.53;4.87;;;;;;;18.13;100.00;96087.00;5026665;28;20341;-82
2022/10/21 10:07:32;;;;;;;12.10;5.03;;;;;;;18.14;100.00;96090.56;5028208;28;20214;-83
2022/10/21 10:09:59;;;;;;;13.50;5.33;;;;;;;18.09;100.00;96085.97;5026030;28;20234;-83
2022/10/21 10:12:28;;;;;;;6.73;4.33;;;;;;;18.17;100.00;96083.72;5045560;28;20207;-83
2022/10/21 10:14:56;;;;;;;10.40;4.67;;;;;;;18.24;100.00;96079.56;5020737;28;20209;-83
2022/10/21 10:17:30;;;;;;;6.57;4.33;;;;;;;18.31;100.00;96087.41;5044613;28;20206;-83
2022/10/21 10:20:13;;;;;;;9.27;4.27;;;;;;;18.26;100.00;96085.56;5041846;28;20211;-83
2022/10/21 10:22:42;;;;;;;7.38;4.53;;;;;;;18.17;100.00;96067.31;5029453;28;20203;-83
2022/10/21 10:25:20;;;;;;;11.87;5.47;;;;;;;18.08;100.00;96073.41;5026935;28;20203;-83
2022/10/21 10:27:50;;;;;;;11.37;6.33;;;;;;;18.00;100.00;96078.66;5036669;28;20214;-83
2022/10/21 10:30:17;;;;;;;10.43;6.20;;;;;;;17.87;100.00;96074.63;5024960;28;20226;-83
2022/10/21 10:32:46;;;;;;;5.87;4.73;;;;;;;17.94;100.00;96072.41;5041151;28;20198;-83
2022/10/21 10:35:25;;;;;;;11.03;5.43;;;;;;;18.01;100.00;96080.28;5018661;28;20345;-83
2022/10/21 10:37:53;;;;;;;8.13;4.87;;;;;;;18.00;100.00;96070.44;5025008;28;20206;-83
2022/10/21 10:40:24;;;;;;;11.93;6.47;;;;;;;18.04;100.00;96071.50;5021972;28;20213;-83
2022/10/21 10:42:58;;;;;;;9.03;6.17;;;;;;;18.07;100.00;96071.75;5018120;28;20218;-84
2022/10/21 10:45:25;;;;;;;10.20;6.63;;;;;;;18.08;100.00;96067.94;5021049;28;20266;-83
2022/10/21 10:47:55;;;;;;;8.87;5.57;;;;;;;18.04;100.00;96055.91;5027185;28;20198;-83
2022/10/21 10:50:46;;;;;;;10.87;6.33;;;;;;;18.06;100.00;96059.19;5023574;28;20266;-83
2022/10/21 10:53:22;;;;;;;11.23;6.67;;;;;;;18.03;100.00;96057.00;5023990;28;20310;-83
2022/10/21 10:55:55;;;;;;;10.50;7.00;;;;;;;17.95;100.00;96056.84;5024074;28;20216;-83
2022/10/21 10:58:25;;;;;;;10.57;6.37;;;;;;;17.99;100.00;96052.41;5040527;28;20242;-86
2022/10/21 11:00:55;;;;;;;11.73;6.20;;;;;;;18.03;100.00;96046.09;5035559;28;20239;-84
2022/10/21 11:03:29;;;;;;;11.37;5.73;;;;;;;18.06;100.00;96034.59;5028380;28;20235;-86
2022/10/21 11:06:05;;;;;;;11.90;6.03;;;;;;;18.07;100.00;96038.16;5025836;28;20289;-85
2022/10/21 11:08:41;;;;;;;10.57;6.30;;;;;;;17.98;100.00;96037.13;5028325;28;20256;-84
2022/10/21 11:11:16;;;;;;;12.17;6.03;;;;;;;17.93;100.00;96031.72;5039143;28;20237;-84
2022/10/21 11:13:43;;;;;;;11.30;5.90;;;;;;;18.06;100.00;96031.88;5018604;28;20226;-85
2022/10/21 11:16:27;;;;;;;9.47;5.93;;;;;;;17.99;100.00;96030.56;5018677;28;20198;-85
2022/10/21 11:19:02;;;;;;;10.47;5.90;;;;;;;18.03;100.00;96026.97;5027694;28;20317;-84
2022/10/21 11:21:44;;;;;;;9.97;6.07;;;;;;;18.18;100.00;96017.03;5023229;28;20289;-86
2022/10/21 11:24:44;;;;;;;8.27;5.57;;;;;;;18.27;100.00;96009.84;5028089;28;20198;-86
2022/10/21 11:27:20;;;;;;;7.23;4.97;;;;;;;18.45;100.00;96011.88;5021120;28;20226;-86
2022/10/21 11:29:59;;;;;;;6.20;4.77;;;;;;;18.48;100.00;96008.53;5029676;28;20206;-85
2022/10/21 11:32:37;;;;;;;9.43;4.60;;;;;;;18.38;100.00;95997.69;5033798;28;20226;-85
2022/10/21 11:35:23;;;;;;;9.23;4.53;;;;;;;18.46;100.00;96002.53;5032626;28;20225;-86
2022/10/21 11:38:06;;;;;;;9.30;4.67;;;;;;;18.57;100.00;96009.59;5041883;28;20241;-85
2022/10/21 11:40:40;;;;;;;6.67;4.03;;;;;;;18.54;100.00;95994.53;5024947;28;20212;-85
2022/10/21 11:43:21;;;;;;;6.17;4.20;;;;;;;18.55;100.00;95989.88;5028227;28;20253;-86
2022/10/21 11:45:58;;;;;;;10.70;5.33;;;;;;;18.60;100.00;96000.00;5021927;28;20218;-85